Time;durP1;ratioP1;P1;durP2;ratioP2;P2;SDS_P1;SDS_P2;PMS_P1;PMS_P2;Temp;Humidity;BMP_temperature;BMP_pressure;BME280_temperature;BME280_humidity;BME280_pressure;Samples;Min_cycle;Max_cycle;Signal;HPM_P1;HPM_P2
2022/01/18 00:01:16;;;;;;;14.87;3.22;;;;;;;0.07;78.96;101894.78;1641080;85;21556;-77
2022/01/18 00:03:43;;;;;;;12.87;2.50;;;;;;;0.04;79.07;101888.67;1640930;87;21237;-73
2022/01/18 00:06:10;;;;;;;10.37;2.87;;;;;;;0.06;79.00;101894.76;1640737;87;21035;-73
2022/01/18 00:08:38;;;;;;;11.03;2.60;;;;;;;0.03;79.04;101895.53;1640430;87;21055;-73
2022/01/18 00:11:06;;;;;;;19.30;2.40;;;;;;;0.03;79.09;101896.83;1641051;86;21110;-74
2022/01/18 00:13:41;;;;;;;10.43;2.40;;;;;;;0.03;79.05;101903.27;1640742;87;21155;-73
2022/01/18 00:16:12;;;;;;;13.40;3.07;;;;;;;0.02;79.11;101909.66;1641163;86;21716;-74
2022/01/18 00:18:38;;;;;;;9.67;3.13;;;;;;;0.01;79.06;101914.36;1640701;85;21091;-74
2022/01/18 00:23:36;;;;;;;14.27;3.13;;;;;;;-0.01;79.06;101918.16;1640699;87;21071;-73
2022/01/18 00:26:05;;;;;;;11.27;2.70;;;;;;;-0.05;79.13;101921.08;1640965;87;21041;-74
2022/01/18 00:28:33;;;;;;;10.93;2.90;;;;;;;-0.03;79.09;101920.72;1640909;87;21152;-78
2022/01/18 00:36:28;;;;;;;12.33;2.90;;;;;;;-0.07;79.17;101927.01;1640959;87;21069;-73
2022/01/18 00:38:55;;;;;;;11.07;2.90;;;;;;;-0.08;79.13;101937.73;1640662;87;21067;-74
2022/01/18 00:41:25;;;;;;;11.07;2.83;;;;;;;-0.11;79.16;101940.61;1640859;86;21275;-73
2022/01/18 00:43:54;;;;;;;13.05;3.08;;;;;;;-0.12;79.21;101946.19;1640724;87;21024;-73
2022/01/18 00:46:23;;;;;;;12.13;3.07;;;;;;;-0.14;79.20;101946.57;1640903;86;21102;-73
2022/01/18 00:48:55;;;;;;;15.10;2.43;;;;;;;-0.16;79.28;101947.34;1640798;86;21568;-73
2022/01/18 00:51:22;;;;;;;17.33;2.70;;;;;;;-0.18;79.24;101940.84;1640927;85;21075;-74
2022/01/18 00:53:50;;;;;;;8.57;2.83;;;;;;;-0.19;79.29;101947.22;1640677;87;21257;-73
2022/01/18 00:56:22;;;;;;;12.00;2.83;;;;;;;-0.19;79.28;101947.22;1640866;87;21012;-73
2022/01/18 00:58:49;;;;;;;13.80;3.20;;;;;;;-0.21;79.42;101957.50;1640818;86;21035;-73
2022/01/18 01:01:20;;;;;;;12.25;2.70;;;;;;;-0.20;79.40;101965.68;1640977;86;21024;-77
2022/01/18 01:03:48;;;;;;;13.37;2.93;;;;;;;-0.25;79.40;101966.84;1640666;87;21023;-74
2022/01/18 01:06:15;;;;;;;10.87;2.57;;;;;;;-0.24;79.33;101979.31;1640917;87;21552;-74
2022/01/18 01:08:42;;;;;;;12.80;3.20;;;;;;;-0.28;79.50;101980.02;1640509;87;21086;-74
2022/01/18 01:11:11;;;;;;;14.17;3.10;;;;;;;-0.28;79.39;101987.36;1640876;87;21097;-74
2022/01/18 01:13:44;;;;;;;11.43;2.40;;;;;;;-0.30;79.49;101989.42;1640654;87;21090;-74
2022/01/18 01:45:51;;;;;;;13.97;3.03;;;;;;;-0.60;79.93;101978.55;1640733;87;21142;-74
2022/01/18 01:48:23;;;;;;;15.00;3.37;;;;;;;-0.61;80.04;101973.33;1640704;87;21070;-73
2022/01/18 01:50:55;;;;;;;14.00;3.60;;;;;;;-0.64;80.11;101966.38;1640927;87;21051;-74
2022/01/18 01:53:23;;;;;;;12.65;3.80;;;;;;;-0.63;80.07;101973.72;1640800;86;21058;-73
2022/01/18 01:55:52;;;;;;;18.62;5.00;;;;;;;-0.65;80.30;101972.36;1640990;87;21051;-73
2022/01/18 01:58:22;;;;;;;15.37;3.97;;;;;;;-0.64;80.31;101973.23;1640644;87;21573;-73
2022/01/18 02:00:55;;;;;;;13.72;3.92;;;;;;;-0.65;80.35;101973.66;1640933;86;21552;-73
2022/01/18 02:03:22;;;;;;;16.83;4.43;;;;;;;-0.64;80.41;101971.95;1640582;86;21107;-74
2022/01/18 02:05:49;;;;;;;18.80;3.57;;;;;;;-0.66;80.39;101977.48;1640862;87;21052;-77
2022/01/18 02:08:17;;;;;;;14.57;4.50;;;;;;;-0.66;80.47;101983.91;1640639;87;21039;-73
2022/01/18 02:10:44;;;;;;;14.23;3.97;;;;;;;-0.69;80.47;101990.70;1640888;87;21109;-73
2022/01/18 02:13:14;;;;;;;14.70;3.67;;;;;;;-0.69;80.62;101995.85;1640601;86;21524;-74
2022/01/18 02:16:08;;;;;;;10.47;3.20;;;;;;;-0.70;80.52;101997.95;1640722;87;21066;-73
2022/01/18 02:23:42;;;;;;;14.73;3.97;;;;;;;-0.72;80.75;101993.56;1640654;87;21156;-73
2022/01/18 02:26:09;;;;;;;14.43;4.00;;;;;;;-0.71;80.78;101987.61;1640753;87;21072;-74
2022/01/18 02:28:36;;;;;;;13.50;2.97;;;;;;;-0.75;80.85;101989.59;1640663;87;21540;-73
2022/01/18 02:31:03;;;;;;;13.40;3.97;;;;;;;-0.75;80.86;101981.88;1640801;87;20974;-73
2022/01/18 02:33:30;;;;;;;17.57;4.00;;;;;;;-0.77;80.95;101981.84;1640621;87;21059;-73
2022/01/18 02:35:57;;;;;;;16.20;3.47;;;;;;;-0.77;80.97;101983.13;1640601;87;21149;-80
2022/01/18 02:38:24;;;;;;;16.40;3.80;;;;;;;-0.78;81.08;101982.64;1640609;86;21083;-74
2022/01/18 02:40:51;;;;;;;14.53;3.30;;;;;;;-0.78;81.09;101978.78;1640656;87;21604;-73
2022/01/18 02:46:04;;;;;;;21.80;4.73;;;;;;;-0.80;81.15;101981.73;1640704;87;21087;-73
2022/01/18 02:48:31;;;;;;;13.80;3.63;;;;;;;-0.84;81.25;101990.16;1640537;87;21135;-73
2022/01/18 02:50:58;;;;;;;19.97;3.30;;;;;;;-0.81;81.31;101982.53;1640785;86;21012;-74
2022/01/18 02:53:27;;;;;;;15.07;3.20;;;;;;;-0.83;81.36;101984.59;1640561;85;21106;-74
2022/01/18 02:55:57;;;;;;;10.60;3.03;;;;;;;-0.84;81.36;101978.58;1640959;86;21029;-74
2022/01/18 02:58:32;;;;;;;;;;;;;;;-0.85;81.45;101978.12;1643060;86;21278;-74
2022/01/18 03:03:42;;;;;;;17.30;3.93;;;;;;;-0.87;81.50;101992.63;1640653;87;21060;-80
2022/01/18 03:06:09;;;;;;;15.23;3.40;;;;;;;-0.89;81.63;102003.27;1640793;85;21545;-75
2022/01/18 03:08:36;;;;;;;11.17;3.40;;;;;;;-0.88;81.64;102009.32;1640653;87;21004;-74
2022/01/18 03:11:04;;;;;;;16.60;3.73;;;;;;;-0.91;81.78;102016.11;1620628;87;21354;-73
2022/01/18 03:13:31;;;;;;;13.17;2.77;;;;;;;-0.91;81.75;102017.81;1640581;86;21134;-73
2022/01/18 03:18:49;;;;;;;11.77;3.27;;;;;;;-0.93;81.79;102036.17;1628403;87;21010;-74
2022/01/18 03:21:17;;;;;;;16.90;3.30;;;;;;;-0.93;81.82;102045.19;1614122;88;21547;-73
2022/01/18 03:23:51;;;;;;;13.77;3.30;;;;;;;-0.94;81.80;102046.89;1638807;87;21103;-74
2022/01/18 03:26:16;;;;;;;13.03;3.30;;;;;;;-0.96;81.89;102042.09;1638944;87;21195;-73
2022/01/18 03:28:42;;;;;;;16.37;3.67;;;;;;;-0.95;81.93;102028.80;1638864;87;21092;-73
2022/01/18 03:31:09;;;;;;;18.10;4.43;;;;;;;-0.98;81.95;102028.28;1638954;87;21098;-73
2022/01/18 03:33:36;;;;;;;16.33;3.60;;;;;;;-0.97;81.95;102036.87;1638936;87;21083;-77
2022/01/18 03:36:05;;;;;;;17.90;3.70;;;;;;;-1.00;82.08;102047.96;1638972;87;21596;-73
2022/01/18 03:38:32;;;;;;;15.63;3.40;;;;;;;-0.99;82.17;102048.83;1638997;87;21088;-73
2022/01/18 03:41:03;;;;;;;18.13;4.87;;;;;;;-1.00;82.17;102047.05;1638844;87;21060;-79
2022/01/18 03:43:30;;;;;;;;;;;;;;;-1.00;82.22;102040.23;1641428;87;21147;-73
2022/01/18 03:46:04;;;;;;;16.10;3.43;;;;;;;-1.01;82.31;102037.59;1638874;87;20227;-73
2022/01/18 03:48:37;;;;;;;18.83;4.33;;;;;;;-1.01;82.26;102039.75;1643268;85;21175;-80
2022/01/18 03:51:06;;;;;;;13.23;3.10;;;;;;;-1.01;82.23;102044.89;1685685;85;21192;-74
2022/01/18 03:53:33;;;;;;;18.40;3.15;;;;;;;-1.03;82.38;102048.23;1686038;85;21044;-74
2022/01/18 03:56:00;;;;;;;11.83;3.13;;;;;;;-1.07;82.44;102045.09;1685895;85;21088;-77
2022/01/18 03:58:27;;;;;;;16.27;3.20;;;;;;;-1.07;82.48;102056.27;1686009;85;21013;-75
2022/01/18 04:00:55;;;;;;;19.20;3.90;;;;;;;-1.09;82.43;102058.31;1685692;85;21049;-74
2022/01/18 04:03:21;;;;;;;15.00;3.87;;;;;;;-1.09;82.57;102052.75;1686073;85;21527;-74
2022/01/18 04:05:48;;;;;;;16.63;3.30;;;;;;;-1.08;82.61;102053.61;1685715;85;21031;-74
2022/01/18 04:08:15;;;;;;;15.40;2.93;;;;;;;-1.09;82.64;102055.73;1686035;85;21032;-74
2022/01/18 04:10:43;;;;;;;15.00;3.27;;;;;;;-1.08;82.57;102063.52;1685822;85;21025;-74
2022/01/18 04:13:10;;;;;;;11.77;4.33;;;;;;;-1.09;82.70;102068.60;1686002;85;21635;-76
2022/01/18 04:15:37;;;;;;;18.37;4.07;;;;;;;-1.08;82.77;102075.48;1685688;85;21963;-74
2022/01/18 04:18:28;;;;;;;20.00;3.80;;;;;;;-1.08;82.81;102084.11;1685663;85;20949;-75
2022/01/18 04:28:52;;;;;;;20.37;4.43;;;;;;;-1.09;82.80;102082.34;1685887;85;21950;-74
2022/01/18 04:31:20;;;;;;;13.63;3.77;;;;;;;-1.09;82.87;102088.77;1685674;85;21002;-79
2022/01/18 04:33:48;;;;;;;14.50;4.00;;;;;;;-1.10;82.85;102090.02;1685962;85;21013;-75
2022/01/18 04:36:16;;;;;;;18.53;4.60;;;;;;;-1.12;82.81;102093.39;1685825;85;21009;-74
2022/01/18 04:38:43;;;;;;;12.87;3.33;;;;;;;-1.14;82.82;102095.44;1685959;85;21291;-74
2022/01/18 04:41:15;;;;;;;20.27;4.60;;;;;;;-1.15;82.78;102097.14;1685629;85;21183;-76
2022/01/18 04:43:51;;;;;;;18.83;4.33;;;;;;;-1.19;82.80;102096.95;1685962;85;21455;-79
2022/01/18 04:48:56;;;;;;;17.50;4.50;;;;;;;-1.17;82.79;102103.91;1685928;85;21463;-75
2022/01/18 04:51:22;;;;;;;20.83;4.30;;;;;;;-1.18;83.03;102115.45;1686036;85;21033;-75
2022/01/18 04:53:55;;;;;;;15.00;3.60;;;;;;;-1.19;83.20;102114.96;1685931;85;21068;-79
2022/01/18 04:59:07;;;;;;;18.70;3.70;;;;;;;-1.18;83.12;102103.45;1685856;85;21353;-75
2022/01/18 05:01:36;;;;;;;17.55;4.45;;;;;;;-1.18;83.00;102114.16;1686218;85;20922;-75
2022/01/18 05:04:04;;;;;;;27.67;6.30;;;;;;;-1.19;83.22;102120.11;1686180;85;21821;-75
2022/01/18 05:06:30;;;;;;;25.97;12.20;;;;;;;-1.18;83.23;102133.05;1686078;85;22132;-74
2022/01/18 05:09:00;;;;;;;28.60;11.77;;;;;;;-1.19;83.22;102145.45;1664269;86;21009;-74
2022/01/18 05:11:30;;;;;;;17.20;3.90;;;;;;;-1.19;83.29;102145.45;1664269;86;21044;-75
2022/01/18 05:16:46;;;;;;;35.07;12.63;;;;;;;-1.20;83.26;102142.81;1664826;86;21036;-78
2022/01/18 05:19:05;;;;;;;73.30;21.30;;;;;;;-1.21;83.25;102143.64;1660786;86;21879;-75
2022/01/18 05:21:32;;;;;;;140.63;44.53;;;;;;;-1.21;83.35;102150.94;1663144;86;21021;-74
2022/01/18 05:23:57;;;;;;;110.40;33.23;;;;;;;-1.21;83.26;102151.36;1664028;86;21025;-75
2022/01/18 05:26:28;;;;;;;60.57;16.53;;;;;;;-1.22;83.41;102159.48;1664342;86;21047;-74
2022/01/18 05:28:57;;;;;;;46.02;11.25;;;;;;;-1.21;83.38;102163.80;1664452;86;21517;-75
2022/01/18 05:31:25;;;;;;;44.03;11.47;;;;;;;-1.21;83.51;102165.50;1664330;86;22370;-74
2022/01/18 05:33:53;;;;;;;34.77;8.17;;;;;;;-1.22;83.35;102145.72;1664341;86;21040;-78
2022/01/18 05:36:20;;;;;;;36.27;8.23;;;;;;;-1.23;83.43;102142.69;1664227;86;21025;-75
2022/01/18 05:38:48;;;;;;;32.47;9.33;;;;;;;-1.22;83.39;102150.87;1629905;86;21482;-75
2022/01/18 05:41:16;;;;;;;27.87;6.93;;;;;;;-1.20;83.30;102150.52;1664496;86;21453;-75
2022/01/18 05:43:43;;;;;;;33.50;7.83;;;;;;;-1.24;83.44;102144.39;1664334;86;21543;-75
2022/01/18 05:46:10;;;;;;;37.80;9.43;;;;;;;-1.25;83.69;102145.61;1664348;86;21001;-75
2022/01/18 05:48:38;;;;;;;35.20;9.30;;;;;;;-1.23;83.64;102152.56;1664348;86;21049;-74
2022/01/18 05:51:05;;;;;;;41.97;9.63;;;;;;;-1.24;83.67;102153.40;1664418;86;21037;-79
2022/01/18 05:53:39;;;;;;;32.33;8.27;;;;;;;-1.24;83.77;102146.97;1664400;86;21286;-79
2022/01/18 05:56:11;;;;;;;36.83;8.97;;;;;;;-1.24;83.68;102146.97;1664394;86;21557;-74
2022/01/18 05:58:36;;;;;;;23.52;6.12;;;;;;;-1.24;83.87;102144.81;1664811;85;21502;-74
2022/01/18 06:01:02;;;;;;;25.97;5.07;;;;;;;-1.20;83.82;102149.23;1664313;86;21097;-74
2022/01/18 06:03:36;;;;;;;29.37;6.50;;;;;;;-1.19;83.79;102148.03;1664639;86;21482;-74
2022/01/18 06:08:44;;;;;;;23.73;5.10;;;;;;;-1.22;84.15;102164.63;1664602;86;21192;-77
2022/01/18 06:11:11;;;;;;;36.13;7.13;;;;;;;-1.17;84.07;102168.66;1664230;86;21017;-73
2022/01/18 06:13:39;;;;;;;29.50;5.23;;;;;;;-1.19;84.05;102176.33;1664636;86;21084;-74
2022/01/18 06:16:06;;;;;;;30.10;6.80;;;;;;;-1.17;84.21;102175.09;1664295;86;21008;-79
2022/01/18 06:18:33;;;;;;;23.30;4.63;;;;;;;-1.17;84.12;102175.09;1664521;86;21032;-74
2022/01/18 06:21:00;;;;;;;23.03;5.87;;;;;;;-1.17;84.19;102181.10;1664367;86;21118;-74
2022/01/18 06:23:27;;;;;;;26.33;5.20;;;;;;;-1.14;84.16;102172.63;1664092;86;21049;-74
2022/01/18 06:25:54;;;;;;;30.93;7.20;;;;;;;-1.12;84.06;102181.30;1664514;86;21072;-74
2022/01/18 06:28:21;;;;;;;23.00;5.43;;;;;;;-1.14;84.24;102190.64;1664568;86;21037;-75
2022/01/18 06:30:48;;;;;;;28.93;7.77;;;;;;;-1.17;84.40;102179.81;1664263;86;21639;-74
2022/01/18 06:33:16;;;;;;;24.57;5.60;;;;;;;-1.12;84.34;102189.89;1664546;85;21089;-74
2022/01/18 06:35:43;;;;;;;19.20;5.10;;;;;;;-1.09;84.28;102200.71;1664229;86;21053;-74
2022/01/18 06:38:12;;;;;;;24.07;5.43;;;;;;;-1.11;84.32;102203.63;1664601;86;21044;-79
2022/01/18 06:40:39;;;;;;;26.93;6.10;;;;;;;-1.13;84.60;102206.16;1664270;86;21108;-74
2022/01/18 06:43:06;;;;;;;19.17;5.07;;;;;;;-1.09;84.58;102221.30;1664623;86;21301;-74
2022/01/18 06:45:34;;;;;;;18.20;4.77;;;;;;;-1.04;84.52;102224.06;1664176;86;21945;-75
2022/01/18 06:48:01;;;;;;;18.37;5.00;;;;;;;-1.01;84.61;102212.61;1664534;86;21060;-74
2022/01/18 06:50:27;;;;;;;31.67;7.87;;;;;;;-1.00;84.78;102226.84;1664346;86;21009;-79
2022/01/18 06:52:54;;;;;;;27.33;5.40;;;;;;;-1.00;84.92;102222.06;1664447;86;21040;-74
2022/01/18 06:55:21;;;;;;;25.50;6.47;;;;;;;-0.97;85.00;102218.33;1664364;86;21123;-79
2022/01/18 06:57:48;;;;;;;18.47;5.43;;;;;;;-0.93;84.84;102230.52;1664520;86;21090;-74
2022/01/18 07:00:16;;;;;;;25.70;5.57;;;;;;;-0.94;85.07;102232.22;1664341;86;20989;-75
2022/01/18 07:02:43;;;;;;;20.60;5.43;;;;;;;-0.87;84.94;102230.75;1664431;86;21324;-74
2022/01/18 07:05:11;;;;;;;24.93;5.83;;;;;;;-0.82;84.89;102238.66;1664294;86;21087;-79
2022/01/18 07:07:40;;;;;;;27.27;7.00;;;;;;;-0.81;85.05;102249.42;1664595;86;21096;-77
2022/01/18 07:10:09;;;;;;;35.30;7.53;;;;;;;-0.80;85.26;102249.91;1664386;86;21195;-74
2022/01/18 07:12:36;;;;;;;26.43;5.83;;;;;;;-0.76;85.35;102254.34;1664443;86;21069;-75
2022/01/18 07:15:06;;;;;;;22.83;6.00;;;;;;;-0.70;85.18;102255.45;1664257;86;21056;-74
2022/01/18 07:17:37;;;;;;;16.93;5.30;;;;;;;-0.63;85.16;102257.00;1664658;86;21069;-74
2022/01/18 07:20:07;;;;;;;28.87;7.63;;;;;;;-0.61;85.25;102262.67;1664218;86;21354;-75
2022/01/18 07:22:34;;;;;;;27.50;6.47;;;;;;;-0.62;85.38;102274.19;1664354;86;21833;-74
2022/01/18 07:25:02;;;;;;;26.57;8.00;;;;;;;-0.60;85.55;102268.28;1664443;86;21055;-75
2022/01/18 07:27:29;;;;;;;18.17;5.47;;;;;;;-0.52;85.36;102269.88;1664260;86;21056;-74
2022/01/18 07:29:56;;;;;;;26.13;5.80;;;;;;;-0.48;85.18;102275.59;1664490;86;21037;-74
2022/01/18 07:32:23;;;;;;;22.73;6.80;;;;;;;-0.49;85.30;102268.70;1664367;86;21013;-77
2022/01/18 07:34:53;;;;;;;25.30;6.63;;;;;;;-0.50;85.40;102265.63;1664492;86;21105;-76
2022/01/18 07:37:22;;;;;;;29.10;6.60;;;;;;;-0.49;85.52;102271.27;1664180;86;21009;-74
2022/01/18 07:39:51;;;;;;;27.73;6.27;;;;;;;-0.42;85.44;102274.53;1664381;86;21092;-74
2022/01/18 07:42:21;;;;;;;23.53;6.20;;;;;;;-0.37;85.32;102266.98;1664349;86;21032;-75
2022/01/18 07:44:48;;;;;;;27.00;6.23;;;;;;;-0.36;85.39;102281.23;1664517;86;21021;-74
2022/01/18 07:47:15;;;;;;;28.13;7.63;;;;;;;-0.38;85.44;102286.73;1664324;86;21767;-74
2022/01/18 07:49:42;;;;;;;26.80;6.30;;;;;;;-0.37;85.59;102287.59;1664405;86;21047;-74
2022/01/18 07:52:10;;;;;;;28.63;7.30;;;;;;;-0.32;85.36;102292.52;1664217;86;21513;-76
2022/01/18 07:54:36;;;;;;;18.40;6.00;;;;;;;-0.27;85.45;102296.16;1664507;86;21081;-77
2022/01/18 07:57:03;;;;;;;22.57;6.77;;;;;;;-0.24;85.36;102301.42;1664234;86;21056;-74
2022/01/18 07:59:30;;;;;;;26.13;6.83;;;;;;;-0.25;85.66;102315.11;1664589;86;21084;-74
2022/01/18 08:01:58;;;;;;;23.20;6.37;;;;;;;-0.20;85.83;102316.58;1664191;86;20990;-74
2022/01/18 08:04:25;;;;;;;23.70;7.40;;;;;;;-0.18;85.89;102317.52;1664299;86;21319;-75
2022/01/18 08:06:52;;;;;;;24.30;7.17;;;;;;;-0.09;85.73;102321.73;1664241;86;21093;-74
2022/01/18 08:09:20;;;;;;;25.27;6.90;;;;;;;-0.03;85.63;102329.68;1664194;86;21025;-74
2022/01/18 08:11:51;;;;;;;28.27;8.33;;;;;;;0.00;85.59;102328.53;1664222;86;21946;-75
2022/01/18 08:14:17;;;;;;;23.07;6.50;;;;;;;-0.01;85.66;102328.05;1664454;86;26003;-75
2022/01/18 08:17:00;;;;;;;25.73;6.13;;;;;;;-0.01;85.75;102339.64;1664390;86;21544;-74
2022/01/18 08:19:18;;;;;;;19.00;6.33;;;;;;;0.01;85.76;102335.44;1663725;85;21005;-74
2022/01/18 08:21:45;;;;;;;16.27;5.90;;;;;;;0.10;85.61;102339.63;1664455;86;21055;-74
2022/01/18 08:24:12;;;;;;;18.57;6.53;;;;;;;0.15;85.55;102338.52;1664371;86;21096;-74
2022/01/18 08:26:39;;;;;;;19.83;6.50;;;;;;;0.15;85.59;102341.98;1664317;86;21092;-75
2022/01/18 08:29:06;;;;;;;25.43;7.67;;;;;;;0.15;85.80;102343.27;1664321;86;21498;-74
2022/01/18 08:31:33;;;;;;;21.03;5.40;;;;;;;0.17;85.86;102342.05;1664448;86;21028;-74
2022/01/18 08:34:00;;;;;;;24.03;6.07;;;;;;;0.21;85.71;102349.93;1664477;85;21526;-80
2022/01/18 08:36:27;;;;;;;18.77;5.60;;;;;;;0.30;85.68;102352.37;1664441;86;21141;-74
2022/01/18 08:38:54;;;;;;;18.97;5.53;;;;;;;0.33;85.49;102355.94;1664523;86;21021;-74
2022/01/18 08:41:21;;;;;;;23.43;5.73;;;;;;;0.33;85.54;102352.48;1664330;86;21044;-74
2022/01/18 08:43:51;;;;;;;24.57;6.30;;;;;;;0.34;85.75;102355.55;1664481;86;21099;-74
2022/01/18 08:46:18;;;;;;;24.30;5.90;;;;;;;0.34;85.71;102359.00;1664867;86;21283;-74
2022/01/18 08:48:45;;;;;;;22.07;5.73;;;;;;;0.38;85.66;102358.70;1664566;86;21461;-74
2022/01/18 08:51:15;;;;;;;17.50;5.60;;;;;;;0.41;85.36;102372.57;1664298;86;21044;-74
2022/01/18 08:53:48;;;;;;;23.57;6.17;;;;;;;0.42;85.30;102365.31;1664511;86;22175;-74
2022/01/18 08:56:11;;;;;;;19.53;5.83;;;;;;;0.42;85.59;102357.58;1664826;85;21437;-74
2022/01/18 08:58:38;;;;;;;20.50;6.50;;;;;;;0.43;85.60;102368.35;1664464;86;21123;-74
2022/01/18 09:01:05;;;;;;;18.00;6.67;;;;;;;0.44;85.69;102379.16;1664736;86;21927;-74
2022/01/18 09:03:32;;;;;;;31.73;10.93;;;;;;;0.50;85.67;102381.08;1664623;86;21017;-74
2022/01/18 09:05:59;;;;;;;20.93;6.10;;;;;;;0.58;85.47;102381.33;1664425;86;21009;-75
2022/01/18 09:08:27;;;;;;;18.70;5.00;;;;;;;0.65;85.51;102384.61;1664664;86;21497;-74
2022/01/18 09:10:54;;;;;;;19.83;5.73;;;;;;;0.68;85.37;102379.55;1664652;86;21048;-74
2022/01/18 09:13:22;;;;;;;24.03;6.83;;;;;;;0.67;85.51;102381.68;1664422;86;22019;-80
2022/01/18 09:15:51;;;;;;;21.83;6.43;;;;;;;0.65;85.42;102392.35;1664417;86;21001;-74
2022/01/18 09:18:19;;;;;;;15.43;5.53;;;;;;;0.64;85.47;102386.73;1664351;85;21052;-74
2022/01/18 09:20:46;;;;;;;16.20;5.40;;;;;;;0.64;85.37;102379.87;1664649;86;21052;-74
2022/01/18 09:23:14;;;;;;;19.43;5.40;;;;;;;0.68;85.16;102389.00;1664374;86;21302;-74
2022/01/18 09:25:42;;;;;;;19.57;5.50;;;;;;;0.70;85.10;102389.95;1664424;86;21136;-74
2022/01/18 09:28:10;;;;;;;23.87;7.37;;;;;;;0.69;85.16;102391.63;1664535;86;21088;-74
2022/01/18 09:30:37;;;;;;;20.87;7.47;;;;;;;0.73;85.38;102389.63;1664188;86;21044;-77
2022/01/18 09:33:06;;;;;;;22.47;6.47;;;;;;;0.75;85.53;102395.73;1664575;86;21013;-75
2022/01/18 09:35:38;;;;;;;19.63;5.57;;;;;;;0.78;85.38;102390.67;1664305;86;21136;-73
2022/01/18 09:38:06;;;;;;;19.07;6.20;;;;;;;0.89;85.32;102394.92;1664577;86;21120;-75
2022/01/18 09:40:37;;;;;;;15.93;5.87;;;;;;;0.96;85.21;102395.58;1664234;86;21036;-74
2022/01/18 09:43:09;;;;;;;16.55;5.87;;;;;;;0.98;85.08;102392.66;1664727;85;21100;-74
2022/01/18 09:45:33;;;;;;;19.33;6.17;;;;;;;0.94;85.15;102397.23;1664749;86;21080;-76
2022/01/18 09:47:59;;;;;;;22.77;7.67;;;;;;;0.96;85.27;102404.62;1664761;86;21009;-75
2022/01/18 09:50:31;;;;;;;26.20;6.90;;;;;;;0.96;85.24;102414.08;1664242;86;21980;-74
2022/01/18 09:52:59;;;;;;;18.43;5.07;;;;;;;0.99;84.92;102423.22;1664587;86;21025;-81
2022/01/18 09:55:30;;;;;;;18.30;6.07;;;;;;;1.01;84.76;102427.61;1635714;86;21044;-74
2022/01/18 09:58:00;;;;;;;20.67;7.23;;;;;;;1.00;84.76;102432.32;1664681;86;21013;-75
2022/01/18 10:00:30;;;;;;;22.57;6.20;;;;;;;0.96;84.93;102435.61;1664325;86;21048;-75
2022/01/18 10:02:58;;;;;;;16.97;4.85;;;;;;;0.97;85.18;102436.09;1664629;86;21044;-74
2022/01/18 10:05:33;;;;;;;19.83;6.27;;;;;;;0.99;85.11;102433.55;1664224;86;21056;-74
2022/01/18 10:08:15;;;;;;;28.10;10.73;;;;;;;0.95;85.11;102426.12;1664560;86;21073;-76
2022/01/18 10:10:53;;;;;;;23.23;6.80;;;;;;;0.99;85.08;102420.22;1664003;86;21005;-74
2022/01/18 10:13:27;;;;;;;17.60;6.60;;;;;;;1.06;84.97;102429.07;1664590;86;21312;-75
2022/01/18 10:16:16;;;;;;;35.73;14.33;;;;;;;1.11;85.03;102432.28;1663871;86;21104;-74
2022/01/18 10:18:56;;;;;;;16.07;5.90;;;;;;;1.16;85.18;102432.83;1664577;86;21058;-78
2022/01/18 10:21:35;;;;;;;23.80;8.87;;;;;;;1.20;85.17;102438.59;1664222;86;21033;-74
2022/01/18 10:24:20;;;;;;;27.10;6.77;;;;;;;1.21;85.24;102447.66;1664626;86;21081;-74
2022/01/18 10:26:49;;;;;;;24.43;7.30;;;;;;;1.20;85.08;102442.46;1664415;86;21549;-75
2022/01/18 10:29:19;;;;;;;16.32;5.83;;;;;;;1.19;84.89;102449.34;1664724;86;22292;-77
2022/01/18 10:37:12;;;;;;;26.03;10.03;;;;;;;1.23;84.76;102462.80;1664365;86;21043;-74
2022/01/18 10:39:42;;;;;;;22.00;7.10;;;;;;;1.22;84.90;102462.73;1664477;86;21092;-74
2022/01/18 10:42:41;;;;;;;20.70;6.60;;;;;;;1.23;85.04;102470.56;1664286;86;21127;-74
2022/01/18 10:45:15;;;;;;;23.13;7.10;;;;;;;1.27;85.09;102474.98;1664595;86;21023;-75
2022/01/18 10:47:57;;;;;;;19.50;5.60;;;;;;;1.36;85.11;102482.59;1663996;86;21104;-74
2022/01/18 10:50:28;;;;;;;20.97;6.60;;;;;;;1.41;84.82;102477.17;1664626;86;21021;-74
2022/01/18 10:53:12;;;;;;;21.07;6.47;;;;;;;1.38;84.53;102471.91;1664172;86;21144;-74
2022/01/18 10:55:40;;;;;;;21.63;6.40;;;;;;;1.38;84.74;102468.03;1664531;86;21114;-77
2022/01/18 10:58:18;;;;;;;22.07;7.27;;;;;;;1.39;84.78;102469.80;1664347;86;21494;-80
2022/01/18 11:00:46;;;;;;;26.67;6.10;;;;;;;1.35;84.72;102481.72;1664579;86;20953;-80
2022/01/18 11:03:13;;;;;;;15.70;5.33;;;;;;;1.36;84.72;102477.03;1664187;86;21072;-80
2022/01/18 11:05:43;;;;;;;20.60;4.47;;;;;;;1.41;84.43;102477.17;1664617;86;21022;-75
2022/01/18 11:08:12;;;;;;;20.45;6.05;;;;;;;1.44;84.28;102477.27;1664368;86;21130;-75
2022/01/18 11:10:48;;;;;;;18.40;6.73;;;;;;;1.43;84.26;102471.65;1664246;85;21056;-75
2022/01/18 11:13:23;;;;;;;23.83;6.20;;;;;;;1.45;84.55;102473.46;1664158;86;21508;-75
2022/01/18 11:15:50;;;;;;;23.47;7.23;;;;;;;1.48;84.48;102470.97;1664718;85;21049;-76
2022/01/18 11:18:29;;;;;;;22.13;5.97;;;;;;;1.50;84.55;102477.50;1664324;86;21049;-79
2022/01/18 11:20:48;;;;;;;22.03;5.83;;;;;;;1.49;84.26;102474.43;1664348;85;21125;-75
2022/01/18 11:23:17;;;;;;;17.33;5.07;;;;;;;1.57;84.23;102469.11;1664102;86;21021;-75
2022/01/18 11:25:46;;;;;;;19.77;6.03;;;;;;;1.62;84.06;102469.27;1664489;86;21113;-75
2022/01/18 11:28:14;;;;;;;15.80;5.30;;;;;;;1.52;83.75;102467.69;1664347;86;21048;-76
2022/01/18 11:30:44;;;;;;;23.63;5.87;;;;;;;1.49;83.98;102458.50;1664536;86;21099;-75
2022/01/18 11:33:14;;;;;;;17.35;5.58;;;;;;;1.53;84.17;102464.67;1664396;86;21134;-75
2022/01/18 11:35:50;;;;;;;;;;;;;;;1.53;83.84;102454.34;1666816;86;21506;-75
2022/01/18 11:38:38;;;;;;;16.80;4.80;;;;;;;1.59;83.83;102462.29;1664341;86;20181;-75
2022/01/18 11:41:06;;;;;;;20.77;5.53;;;;;;;1.62;83.66;102471.85;1664383;86;21509;-75
2022/01/18 11:43:44;;;;;;;16.53;5.17;;;;;;;1.61;83.54;102474.86;1664351;86;21044;-76
2022/01/18 11:46:34;;;;;;;25.90;9.40;;;;;;;1.54;83.51;102477.63;1664442;86;21120;-76
2022/01/18 11:49:22;;;;;;;19.60;5.97;;;;;;;1.51;83.60;102477.95;1664306;86;21438;-76
2022/01/18 11:52:11;;;;;;;20.47;6.30;;;;;;;1.45;83.45;102470.00;1664488;86;21051;-77
2022/01/18 11:57:27;;;;;;;29.47;8.47;;;;;;;1.34;82.98;102470.52;1664528;86;21020;-75
2022/01/18 12:00:08;;;;;;;21.97;5.97;;;;;;;1.26;83.25;102469.78;1664332;86;21203;-76
2022/01/18 12:02:44;;;;;;;22.90;5.30;;;;;;;1.31;83.65;102473.41;1664249;85;21048;-75
2022/01/18 12:05:19;;;;;;;29.77;8.87;;;;;;;1.31;83.55;102461.37;1664148;86;21036;-74
2022/01/18 12:07:49;;;;;;;25.33;7.70;;;;;;;1.39;83.42;102455.17;1664601;85;21088;-75
2022/01/18 12:10:42;;;;;;;28.03;7.67;;;;;;;1.41;83.18;102461.25;1663292;86;21041;-75
2022/01/18 12:13:13;;;;;;;28.27;8.17;;;;;;;1.38;83.21;102461.14;1664201;86;21203;-75
2022/01/18 12:15:50;;;;;;;20.27;6.03;;;;;;;1.34;83.19;102455.42;1664247;86;21076;-75
2022/01/18 12:18:24;;;;;;;21.60;5.17;;;;;;;1.38;83.38;102458.98;1664494;86;21092;-74
2022/01/18 12:20:59;;;;;;;24.30;6.50;;;;;;;1.44;83.42;102453.63;1664246;86;21020;-81
2022/01/18 12:23:44;;;;;;;27.57;6.83;;;;;;;1.51;83.45;102462.03;1664482;86;21005;-75
2022/01/18 12:26:40;;;;;;;19.90;4.47;;;;;;;1.58;83.55;102469.59;1664183;86;21126;-74
2022/01/18 12:29:22;;;;;;;18.77;4.23;;;;;;;1.65;83.32;102466.36;1664192;86;21029;-74
2022/01/18 12:34:38;;;;;;;12.00;3.70;;;;;;;1.74;83.00;102464.06;1664285;86;21033;-75
2022/01/18 12:37:17;;;;;;;21.03;4.90;;;;;;;1.77;83.10;102466.78;1664128;86;21078;-77
2022/01/18 12:40:05;;;;;;;15.77;5.20;;;;;;;1.85;83.10;102464.41;1664240;86;21164;-74
2022/01/18 12:45:19;;;;;;;;;;;;;;;2.05;83.03;102466.75;1666807;86;21044;-74
2022/01/18 12:48:00;;;;;;;19.57;4.30;;;;;;;2.11;82.72;102464.37;1664333;86;20860;-74
2022/01/18 12:50:32;;;;;;;20.13;5.17;;;;;;;2.20;82.67;102459.47;1664486;86;21044;-74
2022/01/18 12:53:09;;;;;;;26.17;7.90;;;;;;;2.39;82.61;102454.44;1664315;86;21142;-74
2022/01/18 12:55:45;;;;;;;25.47;7.10;;;;;;;2.49;82.32;102455.14;1664380;86;21067;-81
2022/01/18 12:58:30;;;;;;;17.00;4.30;;;;;;;2.47;81.98;102462.01;1664223;86;21599;-74